Time;durP1;ratioP1;P1;durP2;ratioP2;P2;SDS_P1;SDS_P2;PMS_P1;PMS_P2;Temp;Humidity;BMP_temperature;BMP_pressure;BME280_temperature;BME280_humidity;BME280_pressure;Samples;Min_cycle;Max_cycle;Signal;HPM_P1;HPM_P2
2023/02/27 00:01:34;;;;;;;4.50;3.10;;;5.70;98.20;;;;;;5111743;28;20174;-69
2023/02/27 00:04:00;;;;;;;3.90;3.10;;;5.70;98.20;;;;;;5112439;28;20170;-69
2023/02/27 00:06:28;;;;;;;4.57;2.70;;;5.70;98.20;;;;;;5093240;28;20667;-69
2023/02/27 00:08:54;;;;;;;8.40;3.80;;;5.70;98.20;;;;;;5076805;28;20563;-69
2023/02/27 00:11:20;;;;;;;4.25;3.00;;;5.60;98.20;;;;;;5077203;28;20155;-69
2023/02/27 00:13:51;;;;;;;2.72;2.40;;;5.70;98.30;;;;;;5111789;28;20175;-69
2023/02/27 00:16:19;;;;;;;3.08;2.60;;;5.60;98.20;;;;;;5074355;28;20717;-69
2023/02/27 00:18:45;;;;;;;4.68;3.20;;;5.70;98.20;;;;;;5073179;28;20203;-69
2023/02/27 00:21:11;;;;;;;4.10;3.33;;;5.60;98.10;;;;;;5105620;28;20245;-69
2023/02/27 00:23:37;;;;;;;3.50;3.20;;;5.60;98.20;;;;;;5093448;28;20463;-69
2023/02/27 00:26:03;;;;;;;4.70;3.33;;;5.60;98.20;;;;;;5076937;28;20271;-69
2023/02/27 00:28:29;;;;;;;5.38;2.95;;;5.60;98.20;;;;;;5093699;28;20194;-68
2023/02/27 00:30:55;;;;;;;4.47;3.20;;;5.60;98.20;;;;;;5093753;28;20198;-69
2023/02/27 00:33:21;;;;;;;3.63;2.95;;;5.60;98.20;;;;;;5076868;28;20235;-69
2023/02/27 00:35:55;;;;;;;3.90;3.17;;;5.60;98.20;;;;;;5073542;28;20602;-67
2023/02/27 00:38:21;;;;;;;3.20;2.70;;;5.60;98.20;;;;;;5091733;28;20492;-69
2023/02/27 00:40:47;;;;;;;4.27;2.73;;;5.60;98.20;;;;;;5088873;28;20213;-69
2023/02/27 00:43:13;;;;;;;4.57;2.95;;;5.60;98.20;;;;;;5071486;28;20452;-69
2023/02/27 00:45:41;;;;;;;3.97;2.93;;;5.60;98.30;;;;;;5060408;28;20209;-69
2023/02/27 00:48:07;;;;;;;4.15;2.78;;;5.50;98.20;;;;;;5094909;28;20432;-69
2023/02/27 00:50:39;;;;;;;4.43;2.70;;;5.50;98.20;;;;;;5060036;28;20175;-66
2023/02/27 00:53:04;;;;;;;3.53;3.13;;;5.50;98.20;;;;;;5094910;28;20266;-68
2023/02/27 00:55:30;;;;;;;4.60;3.40;;;5.50;98.30;;;;;;5043830;28;20262;-69
2023/02/27 00:57:57;;;;;;;6.43;2.78;;;5.50;98.30;;;;;;5094973;28;20485;-69
2023/02/27 01:00:23;;;;;;;3.40;2.75;;;5.50;98.20;;;;;;5076923;28;20187;-68
2023/02/27 01:02:49;;;;;;;2.58;2.35;;;5.50;98.20;;;;;;5076520;28;20176;-69
2023/02/27 01:05:15;;;;;;;5.07;3.30;;;5.50;98.30;;;;;;5095109;28;20236;-69
2023/02/27 01:07:41;;;;;;;3.80;2.92;;;5.50;98.30;;;;;;5097084;28;20672;-69
2023/02/27 01:10:09;;;;;;;3.37;2.60;;;5.50;98.30;;;;;;5097057;28;20262;-69
2023/02/27 01:12:37;;;;;;;3.45;3.13;;;5.50;98.30;;;;;;5097047;28;20488;-69
2023/02/27 01:15:05;;;;;;;4.15;2.83;;;5.40;98.30;;;;;;5096973;28;20220;-69
2023/02/27 01:17:31;;;;;;;4.28;3.03;;;5.40;98.30;;;;;;5079676;28;20295;-69
2023/02/27 01:19:57;;;;;;;3.65;2.72;;;5.40;98.30;;;;;;5114894;28;20166;-69
2023/02/27 01:22:25;;;;;;;4.50;2.57;;;5.40;98.30;;;;;;5096704;28;20655;-68
2023/02/27 01:24:54;;;;;;;3.70;2.50;;;5.40;98.30;;;;;;5094474;28;20836;-68
2023/02/27 01:27:20;;;;;;;3.58;2.58;;;5.40;98.30;;;;;;5082250;28;20282;-68
2023/02/27 01:29:49;;;;;;;4.25;3.42;;;5.40;98.30;;;;;;5083995;28;20201;-68
2023/02/27 01:32:15;;;;;;;3.88;2.78;;;5.40;98.30;;;;;;5096236;28;20167;-68
2023/02/27 01:34:42;;;;;;;5.75;2.95;;;5.40;98.30;;;;;;5096554;28;20224;-68
2023/02/27 01:37:09;;;;;;;3.77;2.80;;;5.40;98.30;;;;;;5096124;28;20202;-68
2023/02/27 01:39:35;;;;;;;3.30;2.65;;;5.30;98.30;;;;;;5079733;28;20420;-68
2023/02/27 01:42:02;;;;;;;2.90;2.60;;;5.30;98.30;;;;;;5058196;28;20191;-68
2023/02/27 01:44:30;;;;;;;4.32;3.00;;;5.40;98.30;;;;;;5075563;28;20587;-67
2023/02/27 01:46:56;;;;;;;3.75;2.30;;;5.30;98.30;;;;;;5137363;22;20233;-71
2023/02/27 01:49:33;;;;;;;5.63;2.70;;;5.30;98.30;;;;;;5026866;28;20198;-71
2023/02/27 01:52:06;;;;;;;3.75;2.60;;;5.30;98.30;;;;;;5011346;28;20598;-71
2023/02/27 01:54:40;;;;;;;4.93;2.78;;;5.30;98.30;;;;;;5016050;28;20198;-71
2023/02/27 01:57:09;;;;;;;5.30;2.90;;;5.30;98.30;;;;;;5032743;28;20200;-71
2023/02/27 01:59:38;;;;;;;3.22;2.80;;;5.30;98.30;;;;;;5015905;28;20196;-71
2023/02/27 02:02:10;;;;;;;3.70;2.50;;;5.30;98.30;;;;;;5015409;28;20190;-71
2023/02/27 02:04:38;;;;;;;2.95;2.65;;;5.30;98.30;;;;;;5032409;28;20177;-71
2023/02/27 02:07:11;;;;;;;4.40;2.55;;;5.30;98.30;;;;;;5032405;28;20200;-70
2023/02/27 02:09:49;;;;;;;5.00;2.65;;;5.30;98.30;;;;;;5031512;28;20312;-71
2023/02/27 02:12:21;;;;;;;3.20;2.53;;;5.30;98.30;;;;;;5032176;28;20280;-71
2023/02/27 02:14:47;;;;;;;2.80;2.40;;;5.30;98.30;;;;;;5015922;28;20712;-71
2023/02/27 02:17:39;;;;;;;2.97;2.30;;;5.30;98.40;;;;;;5016367;28;20201;-71
2023/02/27 02:20:39;;;;;;;3.85;2.80;;;5.30;98.40;;;;;;5020659;28;20169;-71
2023/02/27 02:24:07;;;;;;;3.03;2.40;;;5.20;98.30;;;;;;5015739;28;20677;-71
2023/02/27 02:26:53;;;;;;;3.22;2.70;;;5.20;98.30;;;;;;5009759;28;20264;-71
2023/02/27 02:29:28;;;;;;;4.35;2.70;;;5.20;98.40;;;;;;4994390;28;20659;-71
2023/02/27 02:32:26;;;;;;;3.65;2.40;;;5.20;98.40;;;;;;4995194;28;20319;-71
2023/02/27 02:35:17;;;;;;;3.60;2.45;;;5.20;98.40;;;;;;5014699;28;20545;-71
2023/02/27 02:37:58;;;;;;;3.10;2.78;;;5.20;98.40;;;;;;5036124;28;20574;-71
2023/02/27 02:40:38;;;;;;;2.33;2.13;;;5.20;98.40;;;;;;5036494;28;20733;-71
2023/02/27 02:43:15;;;;;;;3.60;2.65;;;5.20;98.40;;;;;;5010736;28;20192;-71
2023/02/27 02:45:53;;;;;;;4.47;3.67;;;5.10;98.40;;;;;;5015232;28;20212;-71
2023/02/27 02:48:39;;;;;;;4.40;2.83;;;5.10;98.40;;;;;;5048111;28;20681;-71
2023/02/27 02:51:14;;;;;;;2.78;2.50;;;5.10;98.30;;;;;;5014711;28;20161;-71
2023/02/27 02:53:57;;;;;;;4.55;2.75;;;5.10;98.40;;;;;;5014917;28;20399;-71
2023/02/27 02:57:06;;;;;;;3.67;2.65;;;5.10;98.40;;;;;;5020326;28;20177;-71
2023/02/27 02:59:49;;;;;;;3.35;2.47;;;5.10;98.30;;;;;;4913405;29;20246;-71
2023/02/27 03:02:20;;;;;;;3.45;2.67;;;5.10;98.30;;;;;;5013057;28;20577;-71
2023/02/27 03:05:13;;;;;;;4.82;2.75;;;5.10;98.30;;;;;;5047986;28;20173;-71
2023/02/27 03:08:01;;;;;;;2.80;2.17;;;5.10;98.70;;;;;;5016637;28;20268;-71
2023/02/27 03:10:43;;;;;;;4.30;2.60;;;5.10;98.40;;;;;;5047357;28;20208;-71
2023/02/27 03:13:26;;;;;;;4.38;2.40;;;5.10;98.40;;;;;;5031275;28;20165;-71
2023/02/27 03:16:03;;;;;;;3.70;2.40;;;5.10;98.40;;;;;;5030869;28;20731;-71
2023/02/27 03:18:45;;;;;;;3.10;2.42;;;5.00;98.40;;;;;;5014608;28;20250;-71
2023/02/27 03:21:39;;;;;;;3.40;2.58;;;5.00;98.40;;;;;;5032213;28;20688;-71
2023/02/27 03:24:10;;;;;;;3.28;2.55;;;5.00;98.40;;;;;;5013878;28;20202;-71
2023/02/27 03:26:40;;;;;;;3.45;2.38;;;5.00;98.40;;;;;;5046690;28;20209;-71
2023/02/27 03:29:22;;;;;;;3.35;2.70;;;5.00;98.40;;;;;;5015287;28;20238;-71
2023/02/27 03:31:50;;;;;;;3.60;2.25;;;5.00;98.40;;;;;;5010515;28;20189;-71
2023/02/27 03:34:33;;;;;;;4.03;2.47;;;5.00;98.40;;;;;;4996676;28;20240;-71
2023/02/27 03:37:02;;;;;;;4.07;2.63;;;5.00;98.40;;;;;;5030520;28;20198;-71
2023/02/27 03:40:01;;;;;;;3.30;2.45;;;5.00;98.50;;;;;;5014313;28;20200;-71
2023/02/27 03:42:42;;;;;;;4.25;2.70;;;5.00;98.40;;;;;;5009764;28;20189;-71
2023/02/27 03:45:17;;;;;;;3.72;2.13;;;5.00;98.40;;;;;;5026222;28;20339;-71
2023/02/27 03:47:47;;;;;;;3.67;2.65;;;5.00;98.40;;;;;;5030189;28;20219;-71
2023/02/27 03:50:15;;;;;;;2.53;2.25;;;4.90;98.40;;;;;;5031545;28;20172;-71
2023/02/27 03:52:41;;;;;;;4.50;3.00;;;4.90;98.40;;;;;;5030417;28;20244;-71
2023/02/27 03:55:10;;;;;;;3.53;2.60;;;4.90;98.40;;;;;;5030420;28;20272;-72
2023/02/27 03:57:40;;;;;;;4.50;3.05;;;5.00;98.50;;;;;;5029689;28;20205;-71
2023/02/27 04:00:10;;;;;;;4.50;2.70;;;4.90;98.40;;;;;;5010714;28;20286;-71
2023/02/27 04:02:46;;;;;;;3.97;2.90;;;4.90;98.40;;;;;;5027394;28;20181;-71
2023/02/27 04:05:16;;;;;;;4.40;2.90;;;4.90;98.40;;;;;;4995154;28;20284;-71
2023/02/27 04:08:11;;;;;;;3.63;2.58;;;4.90;98.40;;;;;;5011907;28;20222;-71
2023/02/27 04:11:10;;;;;;;4.00;2.75;;;4.90;98.40;;;;;;5026855;28;20220;-71
2023/02/27 04:13:53;;;;;;;4.20;2.70;;;4.90;98.40;;;;;;5027161;28;20180;-71
2023/02/27 04:16:38;;;;;;;2.80;2.47;;;4.90;98.40;;;;;;5015876;28;20261;-71
2023/02/27 04:19:23;;;;;;;3.63;2.85;;;4.90;98.40;;;;;;5014345;28;20292;-71
2023/02/27 04:22:15;;;;;;;3.47;2.55;;;4.90;98.40;;;;;;5015524;28;20511;-71
2023/02/27 04:24:54;;;;;;;5.13;2.40;;;4.90;98.40;;;;;;5015490;28;20228;-71
2023/02/27 04:27:39;;;;;;;2.90;2.17;;;4.90;98.40;;;;;;5006318;28;20214;-71
2023/02/27 04:30:34;;;;;;;2.50;2.30;;;4.80;98.40;;;;;;5034253;28;20177;-71
2023/02/27 04:33:07;;;;;;;5.50;2.30;;;4.80;98.40;;;;;;5033836;28;20174;-71
2023/02/27 04:35:52;;;;;;;6.32;2.25;;;4.80;98.40;;;;;;5048953;28;20185;-71
2023/02/27 04:38:40;;;;;;;3.45;2.83;;;4.80;98.40;;;;;;5033971;28;20205;-71
2023/02/27 04:41:14;;;;;;;3.92;2.63;;;4.80;98.40;;;;;;5028238;28;20201;-71
2023/02/27 04:43:43;;;;;;;3.13;2.50;;;4.80;98.40;;;;;;4997877;28;20178;-71
2023/02/27 04:46:14;;;;;;;4.07;2.55;;;4.80;98.40;;;;;;5015042;28;20197;-71
2023/02/27 04:48:57;;;;;;;3.42;2.40;;;4.80;98.40;;;;;;5044474;28;20224;-71
2023/02/27 04:51:37;;;;;;;4.10;2.70;;;4.80;98.80;;;;;;5017294;28;20207;-71
2023/02/27 04:54:16;;;;;;;3.85;2.88;;;4.80;98.40;;;;;;5017192;28;20168;-71
2023/02/27 04:56:55;;;;;;;4.32;2.53;;;4.80;98.40;;;;;;5033039;28;20533;-71
2023/02/27 04:59:32;;;;;;;3.67;2.70;;;4.70;98.40;;;;;;5027471;28;20720;-71
2023/02/27 05:02:07;;;;;;;4.28;2.92;;;4.70;98.40;;;;;;5033550;28;20212;-71
2023/02/27 05:04:37;;;;;;;2.80;2.13;;;4.70;98.40;;;;;;5016982;28;20284;-71
2023/02/27 05:07:09;;;;;;;3.97;2.47;;;4.70;98.30;;;;;;5016417;28;21051;-71
2023/02/27 05:09:45;;;;;;;4.25;2.70;;;4.70;98.30;;;;;;5014880;28;20190;-71
2023/02/27 05:12:27;;;;;;;3.10;2.50;;;4.70;98.30;;;;;;5014705;28;20161;-71
2023/02/27 05:14:59;;;;;;;4.22;2.53;;;4.70;98.30;;;;;;5021859;28;20564;-71
2023/02/27 05:17:30;;;;;;;4.97;2.72;;;4.70;98.30;;;;;;5016740;28;20745;-71
2023/02/27 05:19:58;;;;;;;3.38;2.20;;;4.70;98.30;;;;;;5031724;28;20233;-71
2023/02/27 05:22:57;;;;;;;4.20;2.35;;;4.70;98.40;;;;;;5023398;28;20647;-71
2023/02/27 05:25:57;;;;;;;2.55;2.35;;;4.70;98.30;;;;;;5007624;28;20324;-71
2023/02/27 05:28:33;;;;;;;4.53;3.03;;;4.70;98.30;;;;;;5011543;28;20223;-71
2023/02/27 05:31:08;;;;;;;5.45;2.85;;;4.70;98.30;;;;;;5033119;28;20192;-71
2023/02/27 05:33:51;;;;;;;4.63;2.63;;;4.70;98.30;;;;;;5032705;28;20209;-71
2023/02/27 05:36:24;;;;;;;4.00;2.45;;;4.60;98.30;;;;;;5032938;28;20223;-71
2023/02/27 05:39:01;;;;;;;4.80;3.00;;;4.70;98.30;;;;;;5034223;28;20209;-70
2023/02/27 05:41:33;;;;;;;3.40;2.70;;;4.70;98.30;;;;;;5015488;28;20331;-71
2023/02/27 05:44:31;;;;;;;2.45;2.22;;;4.60;98.30;;;;;;5033211;28;20235;-72
2023/02/27 05:47:09;;;;;;;4.43;2.75;;;4.60;98.30;;;;;;5024973;28;20232;-71
2023/02/27 05:49:38;;;;;;;3.45;2.65;;;4.60;98.30;;;;;;5024120;28;20584;-71
2023/02/27 05:52:08;;;;;;;3.67;2.50;;;4.60;98.30;;;;;;5040495;28;20540;-71
2023/02/27 05:55:00;;;;;;;2.95;2.00;;;4.60;98.30;;;;;;5032435;28;20267;-71
2023/02/27 05:57:52;;;;;;;5.45;3.15;;;4.60;98.30;;;;;;5032551;28;20196;-71
2023/02/27 06:00:43;;;;;;;2.92;2.63;;;4.60;98.30;;;;;;5031640;28;20546;-71
2023/02/27 06:03:14;;;;;;;4.68;2.83;;;4.50;98.20;;;;;;5009453;28;20177;-71
2023/02/27 06:05:42;;;;;;;3.38;2.92;;;4.50;98.20;;;;;;5015794;28;20221;-71
2023/02/27 06:08:09;;;;;;;6.45;3.22;;;4.60;98.30;;;;;;5032154;28;20220;-71
2023/02/27 06:10:37;;;;;;;5.93;3.40;;;4.60;98.30;;;;;;5031891;28;20665;-71
2023/02/27 06:13:05;;;;;;;5.95;3.70;;;4.50;98.30;;;;;;5028659;28;20185;-71
2023/02/27 06:15:31;;;;;;;3.42;2.80;;;4.50;98.30;;;;;;5018601;28;20276;-71
2023/02/27 06:18:00;;;;;;;4.80;3.80;;;4.50;98.30;;;;;;5032705;28;20346;-71
2023/02/27 06:20:26;;;;;;;5.00;4.43;;;4.50;98.30;;;;;;5033211;28;20407;-72
2023/02/27 06:22:54;;;;;;;6.35;5.00;;;4.50;98.20;;;;;;5031718;28;20173;-70
2023/02/27 06:25:21;;;;;;;4.85;3.83;;;4.50;98.30;;;;;;5032843;28;20201;-70
2023/02/27 06:27:50;;;;;;;6.30;4.38;;;4.50;98.30;;;;;;5031563;28;20210;-71
2023/02/27 06:30:16;;;;;;;6.97;4.70;;;4.50;98.30;;;;;;4999100;28;20271;-71
2023/02/27 06:32:42;;;;;;;5.80;5.20;;;4.50;98.20;;;;;;5047625;28;20188;-70
2023/02/27 06:35:09;;;;;;;5.93;5.20;;;4.40;98.20;;;;;;5031199;28;20189;-71
2023/02/27 06:37:35;;;;;;;5.50;4.55;;;4.50;98.30;;;;;;5031311;28;20335;-71
2023/02/27 06:40:01;;;;;;;7.35;5.50;;;4.50;98.30;;;;;;5031584;28;20202;-71
2023/02/27 06:42:27;;;;;;;7.18;5.97;;;4.50;98.30;;;;;;5031109;28;20188;-71
2023/02/27 06:44:56;;;;;;;6.70;5.45;;;4.50;98.30;;;;;;5032635;28;20208;-71
2023/02/27 06:47:22;;;;;;;7.15;5.55;;;4.40;98.20;;;;;;5015074;28;20309;-71
2023/02/27 06:49:51;;;;;;;6.78;5.78;;;4.40;98.20;;;;;;5015290;28;20177;-71
2023/02/27 06:52:19;;;;;;;6.25;5.47;;;4.40;98.20;;;;;;5030814;28;20251;-70
2023/02/27 06:54:45;;;;;;;6.65;5.88;;;4.40;98.20;;;;;;5030768;28;20223;-71
2023/02/27 06:57:11;;;;;;;7.80;5.80;;;4.40;98.20;;;;;;5032045;28;20204;-70
2023/02/27 06:59:39;;;;;;;7.10;5.97;;;4.40;98.20;;;;;;5030466;28;20212;-71
2023/02/27 07:02:11;;;;;;;6.82;5.32;;;4.40;98.20;;;;;;5031100;28;20181;-71
2023/02/27 07:04:39;;;;;;;5.93;4.80;;;4.40;98.30;;;;;;5014714;28;20678;-71
2023/02/27 07:07:07;;;;;;;7.35;5.60;;;4.40;98.30;;;;;;5031930;28;20201;-71
2023/02/27 07:09:38;;;;;;;6.82;4.70;;;4.40;98.30;;;;;;5032702;28;20177;-71
2023/02/27 07:12:05;;;;;;;6.03;5.28;;;4.40;98.20;;;;;;5014464;28;20196;-71
2023/02/27 07:14:31;;;;;;;5.20;4.70;;;4.40;98.30;;;;;;5032254;28;20169;-71
2023/02/27 07:16:58;;;;;;;6.05;4.55;;;4.40;98.30;;;;;;5014618;28;20657;-71
2023/02/27 07:19:24;;;;;;;5.70;4.97;;;4.30;98.20;;;;;;5014293;28;20180;-71
2023/02/27 07:21:50;;;;;;;6.88;5.18;;;4.30;98.30;;;;;;5033843;28;20185;-71
2023/02/27 07:24:16;;;;;;;6.47;5.45;;;4.30;98.30;;;;;;5010878;28;20193;-71
2023/02/27 07:26:42;;;;;;;6.35;5.15;;;4.30;98.30;;;;;;5003263;28;20205;-71
2023/02/27 07:29:13;;;;;;;8.40;5.28;;;4.30;98.30;;;;;;5029154;28;20189;-71
2023/02/27 07:31:40;;;;;;;10.15;5.60;;;4.30;98.30;;;;;;5014201;28;20196;-71
2023/02/27 07:34:06;;;;;;;7.72;5.43;;;4.30;98.30;;;;;;5030299;28;20181;-71
2023/02/27 07:36:33;;;;;;;6.93;5.50;;;4.30;98.30;;;;;;5015592;28;20178;-71
2023/02/27 07:38:59;;;;;;;6.45;5.18;;;4.30;98.30;;;;;;5021516;28;20205;-71
2023/02/27 07:41:30;;;;;;;6.25;5.38;;;4.30;98.30;;;;;;5030460;28;20188;-71
2023/02/27 07:43:58;;;;;;;6.63;5.50;;;4.30;98.40;;;;;;5014642;28;20189;-71
2023/02/27 07:46:25;;;;;;;7.57;5.53;;;4.30;98.40;;;;;;5013818;28;20436;-71
2023/02/27 07:48:53;;;;;;;7.60;5.60;;;4.30;98.40;;;;;;5030323;28;20452;-71
2023/02/27 07:51:19;;;;;;;6.38;5.07;;;4.30;98.40;;;;;;5029554;28;20181;-71
2023/02/27 07:53:47;;;;;;;6.55;4.93;;;4.30;98.40;;;;;;5030565;28;20169;-71
2023/02/27 07:56:13;;;;;;;7.10;5.40;;;4.30;98.50;;;;;;5030793;28;20209;-71
2023/02/27 07:58:39;;;;;;;12.40;5.60;;;4.20;98.40;;;;;;5013211;28;20215;-71
2023/02/27 08:01:09;;;;;;;7.43;4.85;;;4.20;98.50;;;;;;5001580;28;20182;-71
2023/02/27 08:03:35;;;;;;;6.43;5.05;;;4.20;98.50;;;;;;5029924;28;20223;-71
2023/02/27 08:06:03;;;;;;;10.30;6.10;;;4.20;98.50;;;;;;5031167;28;20202;-71
2023/02/27 08:08:29;;;;;;;5.28;4.70;;;4.20;98.60;;;;;;5030015;28;20201;-71
2023/02/27 08:10:55;;;;;;;7.50;5.75;;;4.20;98.60;;;;;;5031602;28;20264;-71
2023/02/27 08:13:21;;;;;;;7.50;4.77;;;4.20;98.60;;;;;;5030420;28;20210;-71
2023/02/27 08:15:47;;;;;;;6.40;4.53;;;4.20;98.60;;;;;;5020688;28;20436;-71
2023/02/27 08:18:14;;;;;;;6.40;4.75;;;4.20;98.60;;;;;;5015851;28;20201;-72
2023/02/27 08:20:40;;;;;;;5.63;4.63;;;4.20;98.60;;;;;;5006531;28;20193;-72
2023/02/27 08:23:08;;;;;;;7.87;5.10;;;4.20;98.60;;;;;;5029333;28;20195;-73
2023/02/27 08:25:36;;;;;;;6.72;4.93;;;4.20;98.60;;;;;;5030471;28;20964;-73
2023/02/27 08:28:03;;;;;;;5.10;4.60;;;4.20;99.00;;;;;;5029055;28;20205;-72
2023/02/27 08:30:31;;;;;;;9.32;4.97;;;4.20;98.70;;;;;;5027689;28;20189;-73
2023/02/27 08:32:57;;;;;;;6.78;5.25;;;4.20;98.70;;;;;;5028458;28;20339;-73
2023/02/27 08:35:23;;;;;;;4.85;3.85;;;4.20;98.80;;;;;;5029921;28;20242;-72
2023/02/27 08:37:54;;;;;;;7.40;5.50;;;4.20;98.80;;;;;;5012747;28;20201;-73
2023/02/27 08:40:22;;;;;;;7.80;4.40;;;4.20;98.70;;;;;;5028973;28;20568;-72
2023/02/27 08:42:50;;;;;;;5.28;4.20;;;4.20;98.80;;;;;;5029419;28;20330;-73
2023/02/27 08:45:16;;;;;;;5.10;4.32;;;4.20;98.80;;;;;;5029328;28;20205;-74
2023/02/27 08:47:44;;;;;;;6.40;4.70;;;4.20;98.80;;;;;;5045205;28;20208;-72
2023/02/27 08:50:12;;;;;;;5.82;4.38;;;4.20;98.80;;;;;;5029104;28;20165;-72
2023/02/27 08:52:41;;;;;;;5.53;4.13;;;4.20;98.90;;;;;;5029327;28;20706;-72
2023/02/27 08:55:10;;;;;;;6.05;4.30;;;4.20;99.00;;;;;;5029029;28;20178;-72
2023/02/27 08:57:38;;;;;;;6.25;5.35;;;4.20;99.00;;;;;;5028945;28;20765;-72
2023/02/27 09:00:09;;;;;;;8.50;4.65;;;4.20;99.00;;;;;;5029204;28;20197;-72
2023/02/27 09:02:35;;;;;;;4.43;4.03;;;4.20;99.10;;;;;;5032678;28;20180;-72
2023/02/27 09:05:01;;;;;;;7.93;4.43;;;4.20;99.10;;;;;;5033574;28;20221;-72
2023/02/27 09:07:28;;;;;;;6.15;4.47;;;4.20;99.10;;;;;;5031022;28;20443;-73
2023/02/27 09:09:53;;;;;;;5.13;3.83;;;4.20;99.10;;;;;;5031571;28;20200;-72
2023/02/27 09:12:20;;;;;;;6.10;3.83;;;4.20;99.10;;;;;;4999702;28;20762;-72
2023/02/27 09:14:48;;;;;;;8.77;3.92;;;4.20;99.10;;;;;;5031674;28;20439;-72
2023/02/27 09:17:16;;;;;;;4.68;3.90;;;4.20;99.20;;;;;;5048061;28;20740;-72
2023/02/27 09:19:42;;;;;;;4.33;3.80;;;4.20;99.20;;;;;;5033350;28;20240;-72
2023/02/27 09:22:13;;;;;;;9.75;3.85;;;4.30;99.20;;;;;;5032951;28;20219;-72
2023/02/27 09:24:41;;;;;;;5.88;4.43;;;4.20;99.10;;;;;;5039081;28;20181;-72
2023/02/27 09:27:07;;;;;;;4.70;3.85;;;4.20;99.10;;;;;;5026619;28;20219;-72
2023/02/27 09:29:35;;;;;;;5.57;3.50;;;4.30;99.20;;;;;;5025909;28;20191;-72
2023/02/27 09:32:04;;;;;;;5.25;3.85;;;4.30;99.20;;;;;;5031973;28;20173;-72
2023/02/27 09:34:30;;;;;;;4.05;3.00;;;4.30;99.20;;;;;;5032395;28;20640;-72
2023/02/27 09:37:00;;;;;;;4.05;3.10;;;4.30;99.20;;;;;;5048205;28;20173;-72
2023/02/27 09:39:28;;;;;;;3.85;3.42;;;4.30;99.20;;;;;;5030605;28;20713;-72
2023/02/27 09:41:57;;;;;;;4.45;3.60;;;4.30;99.20;;;;;;5031220;28;20223;-72
2023/02/27 09:44:31;;;;;;;4.82;3.20;;;4.30;99.20;;;;;;5032716;28;20277;-72
2023/02/27 09:46:57;;;;;;;8.27;3.53;;;4.40;99.30;;;;;;5032968;28;20269;-72
2023/02/27 09:49:30;;;;;;;4.57;3.53;;;4.40;99.20;;;;;;5031334;28;20163;-72
2023/02/27 09:51:59;;;;;;;4.95;3.35;;;4.40;99.20;;;;;;5015505;28;20185;-72
2023/02/27 09:54:29;;;;;;;5.43;3.22;;;4.40;99.20;;;;;;5032849;28;20174;-72
2023/02/27 09:57:02;;;;;;;6.03;3.65;;;4.40;99.20;;;;;;5031264;28;20829;-72
2023/02/27 09:59:33;;;;;;;4.78;3.05;;;4.40;99.10;;;;;;5031805;28;20193;-72
2023/02/27 10:02:10;;;;;;;3.47;3.08;;;4.40;99.10;;;;;;5014712;28;20205;-72
2023/02/27 10:04:44;;;;;;;5.72;3.30;;;4.50;99.10;;;;;;5018987;28;20661;-72
2023/02/27 10:07:22;;;;;;;3.70;3.00;;;4.50;99.00;;;;;;5015493;28;20213;-72
2023/02/27 10:09:48;;;;;;;3.63;3.20;;;4.50;99.00;;;;;;5037347;28;20200;-72
2023/02/27 10:12:29;;;;;;;6.70;3.25;;;4.60;99.00;;;;;;5030828;28;20165;-72
2023/02/27 10:15:10;;;;;;;5.05;3.22;;;4.60;99.00;;;;;;5032019;28;20181;-72
2023/02/27 10:17:47;;;;;;;3.45;3.13;;;4.60;99.00;;;;;;5031111;28;20204;-72
2023/02/27 10:20:25;;;;;;;5.88;3.10;;;4.60;99.00;;;;;;4997556;28;20205;-70
2023/02/27 10:22:53;;;;;;;3.00;2.67;;;4.60;98.90;;;;;;5030964;28;20204;-72
2023/02/27 10:25:20;;;;;;;4.13;2.58;;;4.60;98.80;;;;;;5012412;28;20685;-72
2023/02/27 10:27:48;;;;;;;6.95;3.20;;;4.70;98.90;;;;;;5015098;28;20275;-72
2023/02/27 10:30:23;;;;;;;5.97;3.15;;;4.70;98.90;;;;;;5032148;28;20629;-72
2023/02/27 10:32:56;;;;;;;5.00;2.78;;;4.70;98.90;;;;;;5032022;28;20192;-72
2023/02/27 10:35:26;;;;;;;4.47;3.10;;;4.70;98.80;;;;;;5031366;28;20182;-72
2023/02/27 10:37:58;;;;;;;5.20;2.53;;;4.70;98.80;;;;;;5030594;28;20201;-72
2023/02/27 10:40:24;;;;;;;4.30;2.50;;;4.80;98.80;;;;;;5029692;28;20209;-72
2023/02/27 10:42:55;;;;;;;2.55;2.05;;;4.80;98.70;;;;;;5014579;28;20670;-72
2023/02/27 10:45:23;;;;;;;5.00;3.03;;;4.80;98.70;;;;;;5030038;28;20198;-72
2023/02/27 10:47:51;;;;;;;3.13;2.40;;;4.80;98.70;;;;;;5030232;28;20210;-72
2023/02/27 10:50:35;;;;;;;4.30;2.75;;;4.80;98.60;;;;;;5030962;28;20412;-71
2023/02/27 10:53:05;;;;;;;5.63;2.85;;;4.90;98.50;;;;;;5030418;28;20180;-72
2023/02/27 10:55:38;;;;;;;4.20;2.30;;;4.90;98.50;;;;;;5013770;28;20288;-71
2023/02/27 10:58:06;;;;;;;3.10;2.05;;;4.90;98.50;;;;;;5031664;28;20212;-72
2023/02/27 11:00:44;;;;;;;3.78;2.30;;;4.90;98.50;;;;;;5017835;28;20186;-71
2023/02/27 11:03:24;;;;;;;3.78;2.22;;;4.90;98.40;;;;;;5019483;28;20189;-71
2023/02/27 11:05:59;;;;;;;3.13;2.55;;;4.90;98.40;;;;;;5046852;28;20215;-71
2023/02/27 11:08:30;;;;;;;2.35;2.08;;;4.90;98.40;;;;;;5030782;28;20610;-70
2023/02/27 11:11:08;;;;;;;6.10;2.40;;;5.00;98.40;;;;;;5029939;28;20674;-72
2023/02/27 11:13:44;;;;;;;2.97;1.92;;;5.00;98.30;;;;;;5031927;28;20252;-71
2023/02/27 11:16:12;;;;;;;3.55;2.15;;;5.00;98.20;;;;;;5031557;28;20189;-72
2023/02/27 11:18:40;;;;;;;3.65;2.25;;;5.00;98.20;;;;;;5029078;28;20293;-72
2023/02/27 11:21:19;;;;;;;3.38;2.70;;;5.00;98.10;;;;;;5028386;28;20714;-72
2023/02/27 11:24:06;;;;;;;2.95;2.17;;;5.10;98.20;;;;;;5012685;28;20235;-72
2023/02/27 11:26:52;;;;;;;2.85;2.25;;;5.00;98.00;;;;;;5030428;28;20296;-71
2023/02/27 11:29:19;;;;;;;3.10;2.42;;;5.10;98.00;;;;;;5013930;28;20693;-72
2023/02/27 11:31:47;;;;;;;4.60;2.55;;;5.10;98.10;;;;;;5030614;28;20223;-72
2023/02/27 11:34:32;;;;;;;3.22;2.25;;;5.10;98.20;;;;;;5029490;28;20185;-72
2023/02/27 11:37:06;;;;;;;3.80;2.50;;;5.10;98.20;;;;;;5013316;28;20181;-72
2023/02/27 11:39:55;;;;;;;3.53;3.05;;;5.10;98.20;;;;;;5029029;28;20199;-72
2023/02/27 11:42:29;;;;;;;2.95;2.70;;;5.20;98.20;;;;;;5029042;28;20700;-72
2023/02/27 11:45:03;;;;;;;3.58;2.90;;;5.20;98.20;;;;;;5013358;28;20181;-72
2023/02/27 11:47:37;;;;;;;3.20;2.60;;;5.20;98.20;;;;;;5029107;28;20316;-72
2023/02/27 11:50:39;;;;;;;3.22;2.60;;;5.20;98.20;;;;;;5045608;28;20185;-72
2023/02/27 11:53:08;;;;;;;4.53;2.97;;;5.20;98.10;;;;;;5031534;28;20234;-72
2023/02/27 11:55:37;;;;;;;3.83;2.95;;;5.30;98.10;;;;;;5030252;28;20269;-72
2023/02/27 11:58:21;;;;;;;5.15;2.60;;;5.30;98.10;;;;;;5030549;28;20201;-72
2023/02/27 12:00:59;;;;;;;3.17;2.80;;;5.30;98.10;;;;;;5012369;28;20262;-72
2023/02/27 12:03:50;;;;;;;4.57;3.00;;;5.30;98.00;;;;;;5046372;28;20177;-72
2023/02/27 12:06:20;;;;;;;7.20;2.88;;;5.40;98.10;;;;;;5029275;28;20205;-72
2023/02/27 12:09:44;;;;;;;3.53;3.00;;;5.40;98.10;;;;;;5028142;28;20193;-72
2023/02/27 12:12:35;;;;;;;4.70;3.28;;;5.40;98.10;;;;;;4996980;28;20208;-72
2023/02/27 12:15:09;;;;;;;6.05;3.33;;;5.40;98.00;;;;;;5029205;28;20200;-72
2023/02/27 12:17:51;;;;;;;3.85;2.90;;;5.50;98.00;;;;;;5029335;28;20201;-72
2023/02/27 12:20:47;;;;;;;3.65;2.75;;;5.50;98.00;;;;;;5012643;28;20221;-72
2023/02/27 12:23:30;;;;;;;3.35;3.00;;;5.50;98.00;;;;;;5029491;28;20165;-72
2023/02/27 12:26:03;;;;;;;4.15;3.13;;;5.50;98.10;;;;;;5019612;28;20284;-72
2023/02/27 12:28:38;;;;;;;5.28;3.33;;;5.50;98.10;;;;;;5030130;28;20217;-72
2023/02/27 12:31:13;;;;;;;4.65;3.15;;;5.50;98.10;;;;;;5046049;28;20165;-72
2023/02/27 12:34:09;;;;;;;3.70;2.90;;;5.50;98.10;;;;;;5028733;28;20173;-72
2023/02/27 12:36:36;;;;;;;3.42;3.13;;;5.50;98.00;;;;;;5031918;28;20511;-72
2023/02/27 12:39:05;;;;;;;5.75;3.35;;;5.60;98.00;;;;;;5005470;28;20213;-72
2023/02/27 12:41:36;;;;;;;3.72;3.30;;;5.60;98.00;;;;;;5021282;28;20173;-72
2023/02/27 12:44:23;;;;;;;3.85;2.95;;;5.60;97.90;;;;;;5016595;28;20273;-72
2023/02/27 12:47:02;;;;;;;3.78;3.08;;;5.60;97.90;;;;;;5032306;28;20213;-72
2023/02/27 12:49:38;;;;;;;4.78;2.83;;;5.70;97.90;;;;;;5034324;28;20639;-72
2023/02/27 12:52:12;;;;;;;4.57;3.28;;;5.60;97.80;;;;;;5033372;28;20190;-72
2023/02/27 12:55:04;;;;;;;3.13;2.80;;;5.70;97.70;;;;;;5029354;28;20213;-72
2023/02/27 12:58:04;;;;;;;6.18;3.15;;;5.70;97.70;;;;;;5031972;28;20253;-72
2023/02/27 13:00:45;;;;;;;5.85;2.75;;;5.70;97.60;;;;;;5048403;28;20727;-72
2023/02/27 13:03:48;;;;;;;3.88;2.45;;;5.70;97.60;;;;;;5032952;28;20221;-72
2023/02/27 13:06:43;;;;;;;3.92;2.85;;;5.70;97.60;;;;;;5032672;28;20217;-73
2023/02/27 13:09:24;;;;;;;6.18;2.88;;;5.80;97.60;;;;;;5049950;28;20166;-72
2023/02/27 13:12:07;;;;;;;4.15;2.95;;;5.70;97.90;;;;;;5033353;28;20243;-72
2023/02/27 13:14:42;;;;;;;3.03;2.50;;;5.70;97.50;;;;;;5015290;28;20212;-72
2023/02/27 13:17:30;;;;;;;4.03;2.97;;;5.80;97.60;;;;;;5015701;28;20201;-72
2023/02/27 13:20:21;;;;;;;3.70;3.20;;;5.80;97.40;;;;;;5031061;28;20198;-72
2023/02/27 13:23:21;;;;;;;3.30;2.90;;;5.80;97.30;;;;;;5031707;28;20502;-72
2023/02/27 13:25:55;;;;;;;3.95;2.83;;;5.80;97.30;;;;;;4993946;28;20220;-72
2023/02/27 13:28:26;;;;;;;3.13;2.83;;;5.80;97.30;;;;;;5011218;28;20195;-72
2023/02/27 13:31:04;;;;;;;2.90;2.60;;;5.80;97.30;;;;;;5003278;28;20254;-72
2023/02/27 13:34:11;;;;;;;3.17;2.60;;;5.90;97.30;;;;;;5033459;28;20174;-72